Time;durP1;ratioP1;P1;durP2;ratioP2;P2;SDS_P1;SDS_P2;PMS_P1;PMS_P2;Temp;Humidity;BMP_temperature;BMP_pressure;BME280_temperature;BME280_humidity;BME280_pressure;Samples;Min_cycle;Max_cycle;Signal;HPM_P1;HPM_P2
2021/12/28 00:00:13;;;;;;;;;;;;;;;6.82;96.61;99054.28;5034562;27;20306;-68
2021/12/28 00:02:39;;;;;;;;;;;;;;;6.84;96.53;99052.31;5032940;27;19904;-69
2021/12/28 00:05:04;;;;;;;;;;;;;;;6.75;96.53;99043.53;5035786;27;20828;-69
2021/12/28 00:07:30;;;;;;;;;;;;;;;6.75;96.90;99038.28;5032141;27;20032;-69
2021/12/28 00:09:55;;;;;;;;;;;;;;;6.78;96.67;99035.38;5031185;27;19927;-69
2021/12/28 00:12:20;;;;;;;;;;;;;;;6.79;96.79;99030.91;5010020;28;19908;-69
2021/12/28 00:15:18;;;;;;;;;;;;;;;6.74;96.42;99031.41;5014403;28;19912;-69
2021/12/28 00:20:15;;;;;;;;;;;;;;;6.73;96.51;99019.22;5013001;27;20748;-69
2021/12/28 00:22:40;;;;;;;;;;;;;;;6.70;96.71;99014.28;5013116;28;20016;-70
2021/12/28 00:25:06;;;;;;;;;;;;;;;6.67;96.72;99014.56;5011717;28;19980;-69
2021/12/28 00:27:31;;;;;;;;;;;;;;;6.62;96.64;99011.59;5033515;27;19908;-68
2021/12/28 00:29:56;;;;;;;;;;;;;;;6.59;97.13;99007.47;5012391;27;19908;-68
2021/12/28 00:32:21;;;;;;;;;;;;;;;6.56;97.00;99012.19;5015227;28;19903;-70
2021/12/28 00:34:47;;;;;;;;;;;;;;;6.56;97.16;98997.28;5014045;27;20299;-70
2021/12/28 00:37:12;;;;;;;;;;;;;;;6.53;96.96;99003.66;5030126;27;20025;-69
2021/12/28 00:39:37;;;;;;;;;;;;;;;6.58;97.24;99005.00;5032047;27;20025;-68
2021/12/28 00:42:02;;;;;;;;;;;;;;;6.65;97.23;98996.31;5033001;27;20388;-69
2021/12/28 00:44:28;;;;;;;;;;;;;;;6.64;96.85;98989.44;5013997;28;20353;-69
2021/12/28 00:46:53;;;;;;;;;;;;;;;6.60;97.25;98993.34;5032162;27;20312;-69
2021/12/28 00:49:18;;;;;;;;;;;;;;;6.61;97.18;98983.66;5033421;27;20284;-70
2021/12/28 00:51:43;;;;;;;;;;;;;;;6.63;96.98;98981.72;5033463;27;19900;-69
2021/12/28 00:54:09;;;;;;;;;;;;;;;6.65;96.92;98985.00;5030401;27;20012;-70
2021/12/28 00:56:34;;;;;;;;;;;;;;;6.67;96.69;98983.88;5036255;27;19911;-69
2021/12/28 00:58:59;;;;;;;;;;;;;;;6.66;96.89;98981.41;5030161;27;20042;-69
2021/12/28 01:01:24;;;;;;;;;;;;;;;6.62;96.84;98977.44;5036872;27;19966;-69
2021/12/28 01:03:50;;;;;;;;;;;;;;;6.65;96.65;98979.75;5040710;27;19951;-69
2021/12/28 01:06:15;;;;;;;;;;;;;;;6.70;96.59;98977.47;5031465;27;20333;-69
2021/12/28 01:08:40;;;;;;;;;;;;;;;6.68;96.64;98974.16;5036853;27;20544;-70
2021/12/28 01:11:05;;;;;;;;;;;;;;;6.73;96.36;98974.53;5011818;28;20941;-69
2021/12/28 01:13:30;;;;;;;;;;;;;;;6.76;96.13;98970.78;5008127;28;20750;-69
2021/12/28 01:15:56;;;;;;;;;;;;;;;6.79;95.90;98966.00;5013507;27;20119;-70
2021/12/28 01:18:21;;;;;;;;;;;;;;;6.69;96.15;98962.69;5020031;27;19956;-69
2021/12/28 01:20:46;;;;;;;;;;;;;;;6.68;95.93;98963.66;5028182;27;20074;-69
2021/12/28 01:23:12;;;;;;;;;;;;;;;6.67;96.08;98965.47;5031899;27;19904;-69
2021/12/28 01:25:37;;;;;;;;;;;;;;;6.76;96.04;98960.25;5028619;27;20032;-69
2021/12/28 01:28:03;;;;;;;;;;;;;;;6.72;95.84;98966.81;5028377;27;19979;-69
2021/12/28 01:30:28;;;;;;;;;;;;;;;6.73;95.94;98966.66;5030664;27;19947;-68
2021/12/28 01:32:53;;;;;;;;;;;;;;;6.70;95.96;98956.44;5029355;27;20000;-69
2021/12/28 01:35:18;;;;;;;;;;;;;;;6.75;95.86;98953.34;5028852;27;20415;-69
2021/12/28 01:37:44;;;;;;;;;;;;;;;6.85;95.60;98954.88;5011471;27;19904;-69
2021/12/28 01:40:10;;;;;;;;;;;;;;;6.83;95.33;98954.22;5029878;27;20785;-69
2021/12/28 01:42:55;;;;;;;;;;;;;;;6.91;95.06;98953.44;5031854;27;19968;-68
2021/12/28 01:45:30;;;;;;;;;;;;;;;6.93;94.47;98945.38;5030744;27;19933;-69
2021/12/28 01:47:55;;;;;;;;;;;;;;;6.93;94.58;98945.38;5034846;27;19911;-69
2021/12/28 01:50:20;;;;;;;;;;;;;;;6.93;94.68;98950.66;5032024;27;19923;-70
2021/12/28 01:52:45;;;;;;;;;;;;;;;6.96;94.24;98952.97;5029628;27;19900;-70
2021/12/28 01:55:11;;;;;;;;;;;;;;;6.99;94.28;98952.63;5013835;27;19908;-69
2021/12/28 01:57:36;;;;;;;;;;;;;;;6.96;94.24;98950.31;5034946;27;20007;-69
2021/12/28 02:00:01;;;;;;;;;;;;;;;6.92;94.15;98946.34;5031600;27;19948;-69
2021/12/28 02:02:27;;;;;;;;;;;;;;;6.90;94.35;98948.34;5033626;27;19922;-68
2021/12/28 02:04:52;;;;;;;;;;;;;;;6.92;94.20;98944.53;5033896;27;20232;-68
2021/12/28 02:07:17;;;;;;;;;;;;;;;6.87;94.26;98945.03;5031784;27;20325;-68
2021/12/28 02:09:42;;;;;;;;;;;;;;;6.91;94.38;98942.91;5031135;28;20416;-68
2021/12/28 02:12:08;;;;;;;;;;;;;;;6.92;94.56;98938.47;5027319;27;20408;-69
2021/12/28 02:14:33;;;;;;;;;;;;;;;6.87;94.50;98942.41;5028112;28;20819;-68
2021/12/28 02:16:58;;;;;;;;;;;;;;;6.95;94.23;98938.16;5030990;27;19978;-69
2021/12/28 02:19:23;;;;;;;;;;;;;;;6.96;94.11;98935.34;5028067;28;19983;-69
2021/12/28 02:21:48;;;;;;;;;;;;;;;7.00;94.13;98930.63;5027840;27;19904;-68
2021/12/28 02:24:14;;;;;;;;;;;;;;;6.96;93.92;98932.72;5031308;28;19903;-68
2021/12/28 02:26:39;;;;;;;;;;;;;;;6.97;93.95;98931.75;5030166;27;20497;-68
2021/12/28 02:29:04;;;;;;;;;;;;;;;6.94;93.54;98921.56;5032329;27;20369;-68
2021/12/28 02:31:30;;;;;;;;;;;;;;;6.90;93.75;98919.41;5010876;28;20445;-69
2021/12/28 02:33:55;;;;;;;;;;;;;;;6.86;94.02;98919.72;5027593;28;20728;-69
2021/12/28 02:36:20;;;;;;;;;;;;;;;6.86;94.15;98921.53;5028496;27;20305;-69
2021/12/28 02:38:46;;;;;;;;;;;;;;;6.91;94.02;98916.63;5009498;28;19915;-70
2021/12/28 02:41:11;;;;;;;;;;;;;;;6.97;93.90;98920.44;5009889;28;19927;-70
2021/12/28 02:43:37;;;;;;;;;;;;;;;7.02;93.65;98923.38;5028621;28;19946;-69
2021/12/28 02:46:02;;;;;;;;;;;;;;;6.99;93.71;98923.72;5029446;27;19967;-69
2021/12/28 02:48:28;;;;;;;;;;;;;;;7.00;93.88;98922.72;5027523;27;19911;-69
2021/12/28 02:50:54;;;;;;;;;;;;;;;7.00;94.09;98915.66;5030679;27;20000;-69
2021/12/28 02:53:20;;;;;;;;;;;;;;;7.01;93.80;98913.88;5028315;28;19914;-69
2021/12/28 02:55:45;;;;;;;;;;;;;;;7.01;93.76;98917.31;5029157;27;20002;-68
2021/12/28 02:58:31;;;;;;;;;;;;;;;7.06;94.08;98919.44;5029112;28;20376;-68
2021/12/28 03:00:58;;;;;;;;;;;;;;;7.10;93.76;98918.16;5027542;27;20101;-69
2021/12/28 03:03:24;;;;;;;;;;;;;;;7.05;94.11;98918.66;5008735;28;19940;-69
2021/12/28 03:05:50;;;;;;;;;;;;;;;7.10;94.29;98915.53;5028246;27;19927;-69
2021/12/28 03:08:16;;;;;;;;;;;;;;;7.10;94.31;98918.16;5029927;27;19911;-68
2021/12/28 03:10:41;;;;;;;;;;;;;;;7.16;94.37;98909.66;5028930;27;19926;-69
2021/12/28 03:13:07;;;;;;;;;;;;;;;7.21;94.45;98911.78;5012549;27;19900;-70
2021/12/28 03:15:32;;;;;;;;;;;;;;;7.26;94.39;98893.69;5029264;27;19926;-69
2021/12/28 03:17:57;;;;;;;;;;;;;;;7.28;94.45;98896.19;5030814;27;19904;-70
2021/12/28 03:20:22;;;;;;;;;;;;;;;7.49;93.52;98885.22;5033627;27;19971;-69
2021/12/28 03:22:47;;;;;;;;;;;;;;;7.48;93.60;98878.28;5030198;27;20033;-69
2021/12/28 03:25:13;;;;;;;;;;;;;;;7.48;93.83;98887.00;5033313;27;19926;-69
2021/12/28 03:27:38;;;;;;;;;;;;;;;7.61;93.88;98885.69;5032886;27;19944;-69
2021/12/28 03:30:07;;;;;;;;;;;;;;;7.57;94.25;98880.75;5032059;27;20000;-69
2021/12/28 03:32:32;;;;;;;;;;;;;;;7.66;94.72;98870.25;5033248;27;19911;-68
2021/12/28 03:34:57;;;;;;;;;;;;;;;7.65;94.91;98877.31;5032508;27;19906;-68
2021/12/28 03:37:22;;;;;;;;;;;;;;;7.64;95.50;98877.47;5030827;27;19918;-68
2021/12/28 03:39:48;;;;;;;;;;;;;;;7.63;95.91;98873.19;5033202;27;19915;-68
2021/12/28 03:42:13;;;;;;;;;;;;;;;7.60;96.13;98870.88;5029965;27;19911;-68
2021/12/28 03:44:38;;;;;;;;;;;;;;;7.67;96.50;98866.59;5015653;27;19926;-68
2021/12/28 03:47:04;;;;;;;;;;;;;;;7.70;96.33;98868.94;5038537;27;19908;-69
2021/12/28 03:49:29;;;;;;;;;;;;;;;7.65;96.56;98865.97;5024195;27;20278;-70
2021/12/28 03:51:54;;;;;;;;;;;;;;;7.64;96.96;98853.78;5030187;27;19967;-68
2021/12/28 03:54:19;;;;;;;;;;;;;;;7.65;97.09;98855.44;5031445;27;20020;-68
2021/12/28 03:56:44;;;;;;;;;;;;;;;7.63;97.17;98846.84;5030871;27;20021;-68
2021/12/28 03:59:10;;;;;;;;;;;;;;;7.65;96.94;98842.28;5034343;27;19934;-68
2021/12/28 04:01:35;;;;;;;;;;;;;;;7.65;97.24;98842.28;5028716;27;20032;-68
2021/12/28 04:04:00;;;;;;;;;;;;;;;7.63;97.21;98833.69;5031152;27;20119;-70
2021/12/28 04:06:25;;;;;;;;;;;;;;;7.65;96.89;98824.66;5030124;27;19915;-68
2021/12/28 04:08:51;;;;;;;;;;;;;;;7.64;97.16;98823.03;5029848;27;19915;-68
2021/12/28 04:13:44;;;;;;;;;;;;;;;7.69;96.78;98822.53;5033461;27;19955;-72
2021/12/28 04:16:10;;;;;;;;;;;;;;;7.63;97.42;98828.44;5012318;27;20004;-70
2021/12/28 04:18:35;;;;;;;;;;;;;;;7.68;97.28;98813.78;5010882;27;19912;-69
2021/12/28 04:21:00;;;;;;;;;;;;;;;7.62;97.15;98813.66;5013186;27;20016;-70
2021/12/28 04:23:25;;;;;;;;;;;;;;;7.67;97.45;98816.59;5031287;27;20019;-69
2021/12/28 04:25:51;;;;;;;;;;;;;;;7.67;97.39;98821.84;5032263;27;20078;-68
2021/12/28 04:28:16;;;;;;;;;;;;;;;7.69;97.20;98818.06;5034089;27;19908;-69
2021/12/28 04:30:41;;;;;;;;;;;;;;;7.66;97.28;98815.78;5028429;27;20834;-69
2021/12/28 04:33:06;;;;;;;;;;;;;;;7.64;97.43;98812.50;5032761;27;20145;-69
2021/12/28 04:35:31;;;;;;;;;;;;;;;7.66;97.34;98814.97;5029599;27;20099;-70
2021/12/28 04:37:57;;;;;;;;;;;;;;;7.66;97.63;98818.41;5032374;27;20005;-69
2021/12/28 04:40:22;;;;;;;;;;;;;;;7.66;97.61;98814.97;5027461;27;20013;-69
2021/12/28 04:42:47;;;;;;;;;;;;;;;7.68;97.68;98815.59;5028562;27;19903;-69
2021/12/28 04:45:15;;;;;;;;;;;;;;;7.65;97.94;98811.50;5027577;27;19935;-69
2021/12/28 04:47:40;;;;;;;;;;;;;;;7.66;97.57;98814.97;5012041;27;20882;-69
2021/12/28 04:50:05;;;;;;;;;;;;;;;7.65;97.92;98818.56;5027216;27;19960;-69
2021/12/28 04:52:35;;;;;;;;;;;;;;;7.63;97.82;98805.59;5011124;27;19900;-69
2021/12/28 04:55:00;;;;;;;;;;;;;;;7.66;98.09;98809.69;5028018;27;19922;-69
2021/12/28 04:57:25;;;;;;;;;;;;;;;7.68;98.27;98803.25;5031321;27;20399;-70
2021/12/28 04:59:50;;;;;;;;;;;;;;;7.73;98.33;98803.59;5012862;27;19972;-70
2021/12/28 05:02:16;;;;;;;;;;;;;;;7.72;97.83;98798.50;5029892;27;19908;-69
2021/12/28 05:04:41;;;;;;;;;;;;;;;7.76;98.21;98796.38;5033131;27;19924;-69
2021/12/28 05:07:06;;;;;;;;;;;;;;;7.73;97.84;98789.63;5032528;27;19907;-69
2021/12/28 05:09:31;;;;;;;;;;;;;;;7.67;98.69;98796.38;5029048;27;19908;-69
2021/12/28 05:11:57;;;;;;;;;;;;;;;7.65;98.83;98793.06;5028517;27;19922;-69
2021/12/28 05:14:22;;;;;;;;;;;;;;;7.72;99.08;98777.44;5030806;27;19952;-69
2021/12/28 05:16:47;;;;;;;;;;;;;;;7.68;98.50;98786.66;5029433;27;19956;-69
2021/12/28 05:19:14;;;;;;;;;;;;;;;7.69;98.15;98783.03;5011569;27;20005;-69
2021/12/28 05:21:39;;;;;;;;;;;;;;;7.68;98.43;98784.00;5010501;27;19903;-69
2021/12/28 05:24:05;;;;;;;;;;;;;;;7.74;98.23;98778.91;5012189;27;19975;-69
2021/12/28 05:26:30;;;;;;;;;;;;;;;7.74;97.96;98781.53;5024533;27;20290;-69
2021/12/28 05:28:55;;;;;;;;;;;;;;;7.73;97.81;98776.44;5025226;27;19907;-69
2021/12/28 05:31:21;;;;;;;;;;;;;;;7.78;97.75;98775.94;5031661;27;19912;-67
2021/12/28 05:33:46;;;;;;;;;;;;;;;7.71;97.91;98774.00;5032865;27;19907;-67
2021/12/28 05:36:11;;;;;;;;;;;;;;;7.72;98.33;98772.97;5032342;27;20732;-68
2021/12/28 05:38:36;;;;;;;;;;;;;;;7.65;98.34;98773.81;5030656;27;20750;-70
2021/12/28 05:41:02;;;;;;;;;;;;;;;7.69;98.50;98772.50;5029583;27;20411;-70
2021/12/28 05:43:27;;;;;;;;;;;;;;;7.64;98.71;98767.75;5029746;27;20321;-70
2021/12/28 05:45:52;;;;;;;;;;;;;;;7.68;98.74;98765.59;5011021;27;19948;-71
2021/12/28 05:48:17;;;;;;;;;;;;;;;7.73;98.57;98764.09;5030239;27;19969;-69
2021/12/28 05:50:43;;;;;;;;;;;;;;;7.74;98.61;98765.75;5028299;27;19911;-69
2021/12/28 05:53:08;;;;;;;;;;;;;;;7.70;98.52;98763.63;5028461;27;19971;-68
2021/12/28 05:55:33;;;;;;;;;;;;;;;7.76;98.35;98767.41;5029813;27;20903;-69
2021/12/28 05:57:58;;;;;;;;;;;;;;;7.70;98.50;98759.19;5027795;27;20322;-69
2021/12/28 06:00:24;;;;;;;;;;;;;;;7.70;98.71;98753.91;5026803;27;19968;-69
2021/12/28 06:02:49;;;;;;;;;;;;;;;7.75;98.32;98750.75;5025287;28;19907;-69
2021/12/28 06:05:14;;;;;;;;;;;;;;;7.74;98.28;98754.38;5026544;27;19931;-69
2021/12/28 06:07:39;;;;;;;;;;;;;;;7.74;98.22;98752.59;5029412;27;19935;-69
2021/12/28 06:10:05;;;;;;;;;;;;;;;7.79;98.03;98746.81;5028911;27;19960;-68
2021/12/28 06:12:30;;;;;;;;;;;;;;;7.76;97.99;98746.34;5030009;28;20462;-68
2021/12/28 06:14:55;;;;;;;;;;;;;;;7.80;97.91;98744.97;5030040;28;20689;-68
2021/12/28 06:17:21;;;;;;;;;;;;;;;7.79;98.12;98738.09;5029666;27;20585;-69
2021/12/28 06:19:46;;;;;;;;;;;;;;;7.78;97.75;98739.88;5026267;27;19904;-68
2021/12/28 06:22:12;;;;;;;;;;;;;;;7.74;98.11;98733.31;5008364;28;19910;-68
2021/12/28 06:24:37;;;;;;;;;;;;;;;7.71;98.52;98739.75;5028656;27;19910;-68
2021/12/28 06:27:02;;;;;;;;;;;;;;;7.72;98.29;98735.31;5030056;27;20074;-69
2021/12/28 06:29:27;;;;;;;;;;;;;;;7.73;98.14;98735.13;5029148;27;19908;-69
2021/12/28 06:31:52;;;;;;;;;;;;;;;7.74;98.25;98738.59;5029351;27;20039;-68
2021/12/28 06:34:18;;;;;;;;;;;;;;;7.72;97.84;98735.31;5028037;27;19910;-68
2021/12/28 06:36:43;;;;;;;;;;;;;;;7.72;98.11;98733.47;5030332;27;19911;-68
2021/12/28 06:39:09;;;;;;;;;;;;;;;7.73;97.74;98736.97;5027407;27;19914;-68
2021/12/28 06:41:34;;;;;;;;;;;;;;;7.76;97.77;98738.44;5011020;28;19965;-69
2021/12/28 06:43:59;;;;;;;;;;;;;;;7.72;97.65;98738.75;5028077;27;19977;-69
2021/12/28 06:46:24;;;;;;;;;;;;;;;7.78;97.42;98744.34;5011917;27;19961;-69
2021/12/28 06:48:50;;;;;;;;;;;;;;;7.82;97.63;98741.19;5032319;27;20265;-68
2021/12/28 06:51:15;;;;;;;;;;;;;;;7.81;97.09;98739.56;5032517;27;20377;-68
2021/12/28 06:53:40;;;;;;;;;;;;;;;7.77;97.15;98743.53;5031016;27;20890;-68
2021/12/28 06:56:06;;;;;;;;;;;;;;;7.87;97.55;98745.97;5030927;27;19908;-69
2021/12/28 06:58:31;;;;;;;;;;;;;;;7.86;97.15;98746.97;5012876;27;20809;-69
2021/12/28 07:00:56;;;;;;;;;;;;;;;7.86;96.97;98747.78;5013440;27;19973;-68
2021/12/28 07:03:22;;;;;;;;;;;;;;;7.82;97.42;98746.47;5008903;28;19908;-68
2021/12/28 07:05:47;;;;;;;;;;;;;;;7.90;97.30;98754.34;5020108;27;19968;-68
2021/12/28 07:08:12;;;;;;;;;;;;;;;7.88;96.94;98750.22;5032932;27;20844;-70
2021/12/28 07:10:37;;;;;;;;;;;;;;;7.88;97.15;98756.34;5032513;27;20836;-70
2021/12/28 07:13:04;;;;;;;;;;;;;;;7.86;97.90;98753.03;5031989;27;20876;-68
2021/12/28 07:15:29;;;;;;;;;;;;;;;7.83;98.15;98757.84;5014209;27;20008;-71
2021/12/28 07:17:55;;;;;;;;;;;;;;;7.77;98.43;98758.50;5029473;27;19922;-69
2021/12/28 07:20:20;;;;;;;;;;;;;;;7.76;98.99;98756.88;5029571;27;20004;-69
2021/12/28 07:22:45;;;;;;;;;;;;;;;7.78;99.03;98755.69;5034594;27;20620;-69
2021/12/28 07:25:10;;;;;;;;;;;;;;;7.80;99.25;98756.34;5035906;27;20271;-67
2021/12/28 07:27:36;;;;;;;;;;;;;;;7.74;99.06;98751.75;5035246;27;21108;-71
2021/12/28 07:30:02;;;;;;;;;;;;;;;7.71;99.23;98749.44;5031936;27;20028;-72
2021/12/28 07:32:27;;;;;;;;;;;;;;;7.71;99.33;98734.50;5012183;27;20077;-68
2021/12/28 07:34:52;;;;;;;;;;;;;;;7.71;99.85;98736.28;5030041;27;19956;-69
2021/12/28 07:37:17;;;;;;;;;;;;;;;7.72;99.71;98730.84;5032027;27;19973;-68
2021/12/28 07:39:43;;;;;;;;;;;;;;;7.74;99.52;98733.31;5031626;27;19912;-68
2021/12/28 07:42:08;;;;;;;;;;;;;;;7.80;98.97;98721.28;5030487;27;20713;-67
2021/12/28 07:44:33;;;;;;;;;;;;;;;7.80;98.72;98716.03;5029060;27;20881;-69
2021/12/28 07:46:58;;;;;;;;;;;;;;;7.71;98.73;98717.88;5013925;27;19934;-67
2021/12/28 07:49:24;;;;;;;;;;;;;;;7.67;98.98;98716.56;5029481;27;21010;-70
2021/12/28 07:51:49;;;;;;;;;;;;;;;7.75;98.88;98719.16;5031117;27;20401;-70
2021/12/28 07:54:14;;;;;;;;;;;;;;;7.64;98.81;98711.63;5028723;27;19967;-71
2021/12/28 07:56:40;;;;;;;;;;;;;;;7.64;99.04;98709.84;5028872;27;19933;-71
2021/12/28 07:59:05;;;;;;;;;;;;;;;7.74;98.63;98714.88;5030865;27;20681;-70
2021/12/28 08:01:31;;;;;;;;;;;;;;;7.71;98.35;98728.41;5029824;27;20323;-68
2021/12/28 08:03:56;;;;;;;;;;;;;;;7.71;98.06;98741.56;5014421;27;19908;-69
2021/12/28 08:06:21;;;;;;;;;;;;;;;7.73;98.11;98743.03;5028030;27;20814;-68
2021/12/28 08:08:46;;;;;;;;;;;;;;;7.76;98.03;98741.06;5030654;27;19988;-69
2021/12/28 08:11:12;;;;;;;;;;;;;;;7.77;97.79;98745.31;5031005;27;19968;-69
2021/12/28 08:13:37;;;;;;;;;;;;;;;7.82;97.85;98746.47;5030511;27;19959;-68
2021/12/28 08:16:02;;;;;;;;;;;;;;;7.80;97.71;98752.88;5034144;27;19911;-68
2021/12/28 08:18:27;;;;;;;;;;;;;;;7.87;97.91;98762.59;5028815;27;20001;-68
2021/12/28 08:20:53;;;;;;;;;;;;;;;7.89;97.20;98763.22;5032636;27;20980;-68
2021/12/28 08:23:18;;;;;;;;;;;;;;;7.95;97.23;98761.72;5033349;27;20757;-69
2021/12/28 08:25:43;;;;;;;;;;;;;;;7.93;97.38;98776.91;5030971;27;20684;-70
2021/12/28 08:28:08;;;;;;;;;;;;;;;7.96;97.51;98779.19;5030076;27;20722;-68
2021/12/28 08:30:35;;;;;;;;;;;;;;;7.93;97.34;98766.38;5027604;27;20452;-67
2021/12/28 08:33:00;;;;;;;;;;;;;;;7.97;96.90;98769.50;5030611;27;19967;-70
2021/12/28 08:35:26;;;;;;;;;;;;;;;8.04;96.87;98766.00;5032089;27;19919;-67
2021/12/28 08:37:51;;;;;;;;;;;;;;;8.06;96.28;98765.84;5033196;27;21030;-67
2021/12/28 08:40:17;;;;;;;;;;;;;;;8.04;96.13;98770.47;5031661;27;20235;-67
2021/12/28 08:42:42;;;;;;;;;;;;;;;8.19;95.71;98763.50;5027180;27;19903;-68
2021/12/28 08:45:07;;;;;;;;;;;;;;;8.20;95.39;98766.94;5014004;27;19931;-68
2021/12/28 08:47:32;;;;;;;;;;;;;;;8.39;95.30;98755.16;5030636;27;19931;-70
2021/12/28 08:49:58;;;;;;;;;;;;;;;8.52;94.00;98752.84;5029283;27;19918;-70
2021/12/28 08:52:23;;;;;;;;;;;;;;;8.74;93.96;98751.22;5027954;27;19945;-67
2021/12/28 08:54:48;;;;;;;;;;;;;;;9.09;91.69;98737.63;5029314;27;19948;-68
2021/12/28 08:57:14;;;;;;;;;;;;;;;8.99;90.08;98751.06;5003270;27;20020;-68
2021/12/28 08:59:39;;;;;;;;;;;;;;;8.83;91.21;98752.00;5017737;27;20726;-69
2021/12/28 09:02:07;;;;;;;;;;;;;;;8.66;91.57;98753.91;5025622;27;19903;-67
2021/12/28 09:04:32;;;;;;;;;;;;;;;8.55;92.31;98776.19;5043266;27;20866;-67
2021/12/28 09:06:58;;;;;;;;;;;;;;;8.47;92.73;98770.97;5032010;27;19915;-70
2021/12/28 09:09:23;;;;;;;;;;;;;;;8.45;92.72;98767.69;5015821;27;19914;-70
2021/12/28 09:11:48;;;;;;;;;;;;;;;8.41;93.42;98763.72;5031339;27;19915;-68
2021/12/28 09:14:13;;;;;;;;;;;;;;;8.36;93.44;98763.41;5034063;27;19957;-67
2021/12/28 09:16:39;;;;;;;;;;;;;;;8.28;93.59;98769.56;5037943;27;19908;-67
2021/12/28 09:19:04;;;;;;;;;;;;;;;8.35;93.87;98757.31;5035740;27;19899;-67
2021/12/28 09:21:29;;;;;;;;;;;;;;;8.33;93.59;98761.13;5033350;27;20179;-68
2021/12/28 09:23:54;;;;;;;;;;;;;;;8.36;93.43;98760.78;5014212;27;20273;-67
2021/12/28 09:26:20;;;;;;;;;;;;;;;8.25;94.32;98752.25;5023828;27;20706;-68
2021/12/28 09:28:45;;;;;;;;;;;;;;;8.22;94.66;98749.97;4993257;28;19908;-68
2021/12/28 09:31:10;;;;;;;;;;;;;;;8.11;95.76;98750.34;5019046;27;19912;-68
2021/12/28 09:33:35;;;;;;;;;;;;;;;8.22;95.30;98752.59;5024283;27;19982;-67
2021/12/28 09:36:01;;;;;;;;;;;;;;;8.29;96.03;98751.91;5024553;27;19932;-67
2021/12/28 09:38:26;;;;;;;;;;;;;;;8.27;96.06;98759.19;5019936;27;20187;-67
2021/12/28 09:40:52;;;;;;;;;;;;;;;8.28;95.75;98745.00;5001872;27;20615;-68
2021/12/28 09:43:17;;;;;;;;;;;;;;;8.32;95.73;98762.94;5026889;27;20095;-68
2021/12/28 09:45:43;;;;;;;;;;;;;;;8.28;95.61;98752.91;5020234;27;19930;-68
2021/12/28 09:48:08;;;;;;;;;;;;;;;8.29;95.78;98750.13;5030049;27;19922;-68
2021/12/28 09:50:34;;;;;;;;;;;;;;;8.31;95.87;98742.84;5032715;27;20048;-68
2021/12/28 09:53:00;;;;;;;;;;;;;;;8.24;96.28;98740.06;5026660;27;20392;-69
2021/12/28 09:55:25;;;;;;;;;;;;;;;8.31;96.34;98740.22;5029815;27;20655;-68
2021/12/28 09:57:51;;;;;;;;;;;;;;;8.29;96.62;98742.22;4995739;27;19903;-70
2021/12/28 10:00:16;;;;;;;;;;;;;;;8.30;96.96;98737.75;5031370;27;19907;-69
2021/12/28 10:02:41;;;;;;;;;;;;;;;8.38;95.98;98735.09;5031413;27;20814;-67
2021/12/28 10:05:08;;;;;;;;;;;;;;;8.40;96.23;98738.34;5036725;27;20040;-67
2021/12/28 10:07:37;;;;;;;;;;;;;;;8.36;96.67;98739.69;5031411;27;20149;-70
2021/12/28 10:10:05;;;;;;;;;;;;;;;8.39;96.42;98731.44;5035008;27;20665;-66
2021/12/28 10:12:30;;;;;;;;;;;;;;;8.39;96.51;98726.16;5011723;27;19907;-68
2021/12/28 10:14:56;;;;;;;;;;;;;;;8.34;96.57;98717.97;5031334;27;19915;-68
2021/12/28 10:17:25;;;;;;;;;;;;;;;8.39;97.46;98721.72;5027357;27;19922;-69
2021/12/28 10:19:50;;;;;;;;;;;;;;;8.38;96.85;98721.91;5043799;27;19926;-68
2021/12/28 10:22:18;;;;;;;;;;;;;;;8.42;96.95;98704.75;5061817;27;19908;-67
2021/12/28 10:24:43;;;;;;;;;;;;;;;8.43;96.67;98712.50;5036229;27;20404;-69
2021/12/28 10:27:12;;;;;;;;;;;;;;;8.47;96.37;98714.81;5049699;27;20059;-68
2021/12/28 10:29:37;;;;;;;;;;;;;;;8.47;96.51;98706.91;5030862;27;19915;-67
2021/12/28 10:32:22;;;;;;;;;;;;;;;8.52;96.84;98709.84;4988039;27;19919;-67
2021/12/28 10:34:48;;;;;;;;;;;;;;;8.38;97.34;98698.19;5032026;27;19914;-67
2021/12/28 10:37:14;;;;;;;;;;;;;;;8.31;97.96;98692.78;5029934;27;19907;-67
2021/12/28 10:39:43;;;;;;;;;;;;;;;8.36;98.33;98690.47;5037514;27;20611;-67
2021/12/28 10:42:08;;;;;;;;;;;;;;;8.40;97.45;98677.75;5036038;27;20790;-67
2021/12/28 10:44:54;;;;;;;;;;;;;;;8.40;97.61;98675.09;5020593;27;19951;-67
2021/12/28 10:47:28;;;;;;;;;;;;;;;8.48;98.17;98683.00;5038592;27;19933;-69
2021/12/28 10:49:53;;;;;;;;;;;;;;;8.52;97.92;98670.31;5001170;27;19919;-69
2021/12/28 10:52:24;;;;;;;;;;;;;;;8.51;97.68;98672.09;5017167;27;20192;-67
2021/12/28 10:54:49;;;;;;;;;;;;;;;8.46;98.17;98666.56;5030632;27;20293;-67
2021/12/28 10:57:15;;;;;;;;;;;;;;;8.52;97.87;98652.66;5015694;27;19970;-67
2021/12/28 10:59:40;;;;;;;;;;;;;;;8.48;97.72;98648.72;5029163;27;19915;-70
2021/12/28 11:02:06;;;;;;;;;;;;;;;8.50;97.83;98651.19;5027887;27;20008;-70
2021/12/28 11:04:32;;;;;;;;;;;;;;;8.52;97.39;98647.38;5031572;27;20117;-69
2021/12/28 11:06:57;;;;;;;;;;;;;;;8.52;97.38;98651.84;5026206;27;19920;-70
2021/12/28 11:09:23;;;;;;;;;;;;;;;8.50;97.17;98649.41;5010602;27;20828;-69
2021/12/28 11:11:50;;;;;;;;;;;;;;;8.59;97.17;98639.59;5023041;27;20008;-69
2021/12/28 11:14:16;;;;;;;;;;;;;;;8.64;97.02;98636.44;5033109;27;20077;-69
2021/12/28 11:16:42;;;;;;;;;;;;;;;8.67;96.78;98633.44;5010395;28;20465;-69
2021/12/28 11:19:08;;;;;;;;;;;;;;;8.81;96.35;98630.03;5023800;27;20391;-68
2021/12/28 11:21:34;;;;;;;;;;;;;;;8.81;95.92;98630.03;5034186;27;19904;-69
2021/12/28 11:24:01;;;;;;;;;;;;;;;8.89;96.28;98618.59;5016598;27;19907;-69
2021/12/28 11:26:27;;;;;;;;;;;;;;;8.93;95.69;98618.06;5034580;27;19924;-69
2021/12/28 11:28:53;;;;;;;;;;;;;;;8.93;95.67;98618.06;5047619;27;20378;-69
2021/12/28 11:31:19;;;;;;;;;;;;;;;9.03;95.75;98607.25;5036245;27;19911;-67
2021/12/28 11:33:49;;;;;;;;;;;;;;;9.05;94.37;98604.44;5030444;27;19915;-68
2021/12/28 11:36:15;;;;;;;;;;;;;;;9.06;94.61;98600.78;5024585;27;19916;-68
2021/12/28 11:38:40;;;;;;;;;;;;;;;9.00;94.98;98591.78;5062156;27;19915;-68
2021/12/28 11:41:06;;;;;;;;;;;;;;;9.01;94.51;98597.88;5049906;27;19998;-68
2021/12/28 11:43:34;;;;;;;;;;;;;;;9.06;95.06;98592.88;5038183;27;19919;-68
2021/12/28 11:46:00;;;;;;;;;;;;;;;9.07;95.12;98583.97;5056279;27;20024;-70
2021/12/28 11:48:25;;;;;;;;;;;;;;;9.09;94.25;98580.16;5065880;27;20792;-68
2021/12/28 11:50:51;;;;;;;;;;;;;;;9.10;94.51;98576.50;5045336;27;19933;-69
2021/12/28 11:53:17;;;;;;;;;;;;;;;9.09;93.77;98568.78;5068746;27;19903;-68
2021/12/28 11:55:43;;;;;;;;;;;;;;;9.08;93.49;98572.41;5068889;27;20028;-68
2021/12/28 11:58:08;;;;;;;;;;;;;;;9.10;94.22;98570.41;5047444;27;20698;-68
2021/12/28 12:00:37;;;;;;;;;;;;;;;8.97;94.88;98567.56;5039952;27;19919;-67
2021/12/28 12:03:02;;;;;;;;;;;;;;;9.04;95.17;98565.84;5048435;27;20039;-69
2021/12/28 12:05:28;;;;;;;;;;;;;;;8.90;95.77;98563.03;5063232;27;19919;-68
2021/12/28 12:08:03;;;;;;;;;;;;;;;9.02;96.21;98565.22;5033018;27;19911;-69
2021/12/28 12:10:30;;;;;;;;;;;;;;;8.91;96.89;98551.47;5067380;27;20043;-69
2021/12/28 12:12:55;;;;;;;;;;;;;;;8.92;97.42;98547.81;5065198;27;19948;-67
2021/12/28 12:15:22;;;;;;;;;;;;;;;8.85;97.98;98536.34;5046374;27;20357;-68
2021/12/28 12:17:47;;;;;;;;;;;;;;;8.81;98.57;98539.53;5048438;27;19907;-67
2021/12/28 12:20:15;;;;;;;;;;;;;;;8.80;99.04;98528.19;5025680;27;19981;-68
2021/12/28 12:22:41;;;;;;;;;;;;;;;8.85;98.81;98525.00;5064526;27;19903;-67
2021/12/28 12:25:10;;;;;;;;;;;;;;;8.86;98.80;98527.47;5050164;27;19990;-68
2021/12/28 12:27:46;;;;;;;;;;;;;;;8.85;98.69;98523.16;5049190;27;19915;-68
2021/12/28 12:30:17;;;;;;;;;;;;;;;8.85;98.86;98522.38;5046357;27;19934;-68
2021/12/28 12:33:01;;;;;;;;;;;;;;;8.81;99.86;98529.81;5063015;27;19907;-67
2021/12/28 12:35:30;;;;;;;;;;;;;;;8.83;99.26;98530.47;5044781;27;20712;-67
2021/12/28 12:37:55;;;;;;;;;;;;;;;8.80;99.76;98544.00;5046004;27;19918;-68
2021/12/28 12:40:21;;;;;;;;;;;;;;;8.80;100.00;98533.47;5027716;27;19904;-69
2021/12/28 12:43:05;;;;;;;;;;;;;;;8.76;100.00;98566.47;5028190;27;19949;-68
2021/12/28 12:45:49;;;;;;;;;;;;;;;8.93;98.98;98575.84;5068077;27;19919;-68
2021/12/28 12:48:52;;;;;;;;;;;;;;;9.09;93.54;98595.16;5068218;27;19907;-69
2021/12/28 12:51:24;;;;;;;;;;;;;;;9.24;92.43;98577.50;5065489;27;20415;-69
2021/12/28 12:53:56;;;;;;;;;;;;;;;9.30;91.19;98581.25;5065097;27;19914;-68
2021/12/28 12:56:21;;;;;;;;;;;;;;;9.32;90.24;98583.69;5040379;27;19945;-68